sensor_id;sensor_type;location;lat;lon;timestamp;P1;durP1;ratioP1;P2;durP2;ratioP2
44384;SDS011;30101;32.778;34.994;2022-09-09T00:01:32;11.68;;;4.38;;
44384;SDS011;30101;32.778;34.994;2022-09-09T00:06:53;10.52;;;4.78;;
44384;SDS011;30101;32.778;34.994;2022-09-09T00:12:05;9.43;;;4.55;;
44384;SDS011;30101;32.778;34.994;2022-09-09T00:17:22;5.20;;;4.40;;
44384;SDS011;30101;32.778;34.994;2022-09-09T00:22:41;13.57;;;4.82;;
44384;SDS011;30101;32.778;34.994;2022-09-09T00:28:13;9.82;;;4.43;;
44384;SDS011;30101;32.778;34.994;2022-09-09T00:33:26;10.40;;;4.07;;
44384;SDS011;30101;32.778;34.994;2022-09-09T00:38:49;17.52;;;4.97;;
44384;SDS011;30101;32.778;34.994;2022-09-09T00:55:37;9.27;;;4.30;;
44384;SDS011;30101;32.778;34.994;2022-09-09T01:00:52;11.25;;;4.07;;
44384;SDS011;30101;32.778;34.994;2022-09-09T01:11:42;7.82;;;4.28;;
44384;SDS011;30101;32.778;34.994;2022-09-09T01:17:09;7.75;;;4.03;;
44384;SDS011;30101;32.778;34.994;2022-09-09T01:22:20;9.73;;;3.85;;
44384;SDS011;30101;32.778;34.994;2022-09-09T01:27:34;11.60;;;4.57;;
44384;SDS011;30101;32.778;34.994;2022-09-09T01:32:42;11.30;;;4.30;;
44384;SDS011;30101;32.778;34.994;2022-09-09T01:37:49;13.38;;;4.57;;
44384;SDS011;30101;32.778;34.994;2022-09-09T01:42:54;6.68;;;3.88;;
44384;SDS011;30101;32.778;34.994;2022-09-09T01:47:58;12.57;;;4.45;;
44384;SDS011;30101;32.778;34.994;2022-09-09T01:53:32;10.15;;;4.30;;
44384;SDS011;30101;32.778;34.994;2022-09-09T02:04:01;10.05;;;3.97;;
44384;SDS011;30101;32.778;34.994;2022-09-09T02:09:10;6.28;;;4.35;;
44384;SDS011;30101;32.778;34.994;2022-09-09T02:14:20;7.50;;;4.00;;
44384;SDS011;30101;32.778;34.994;2022-09-09T02:19:39;9.52;;;4.20;;
44384;SDS011;30101;32.778;34.994;2022-09-09T02:24:57;16.48;;;4.70;;
44384;SDS011;30101;32.778;34.994;2022-09-09T02:30:05;6.88;;;4.82;;
44384;SDS011;30101;32.778;34.994;2022-09-09T02:35:22;10.02;;;4.40;;
44384;SDS011;30101;32.778;34.994;2022-09-09T02:40:29;13.25;;;4.63;;
44384;SDS011;30101;32.778;34.994;2022-09-09T02:45:46;15.45;;;5.38;;
44384;SDS011;30101;32.778;34.994;2022-09-09T02:56:57;9.02;;;5.55;;
44384;SDS011;30101;32.778;34.994;2022-09-09T03:02:13;11.82;;;5.65;;
44384;SDS011;30101;32.778;34.994;2022-09-09T03:07:21;11.10;;;5.35;;
44384;SDS011;30101;32.778;34.994;2022-09-09T03:12:27;8.15;;;5.00;;
44384;SDS011;30101;32.778;34.994;2022-09-09T03:17:30;13.60;;;6.22;;
44384;SDS011;30101;32.778;34.994;2022-09-09T03:22:34;13.30;;;6.55;;
44384;SDS011;30101;32.778;34.994;2022-09-09T03:27:38;14.02;;;7.13;;
44384;SDS011;30101;32.778;34.994;2022-09-09T03:32:42;16.05;;;7.75;;
44384;SDS011;30101;32.778;34.994;2022-09-09T03:37:51;11.50;;;6.38;;
44384;SDS011;30101;32.778;34.994;2022-09-09T03:42:54;10.25;;;5.68;;
44384;SDS011;30101;32.778;34.994;2022-09-09T03:48:00;15.02;;;5.97;;
44384;SDS011;30101;32.778;34.994;2022-09-09T03:53:06;8.70;;;6.45;;
44384;SDS011;30101;32.778;34.994;2022-09-09T03:58:09;9.80;;;5.97;;
44384;SDS011;30101;32.778;34.994;2022-09-09T04:03:13;9.98;;;6.20;;
44384;SDS011;30101;32.778;34.994;2022-09-09T04:08:17;10.32;;;6.07;;
44384;SDS011;30101;32.778;34.994;2022-09-09T04:13:24;11.95;;;6.38;;
44384;SDS011;30101;32.778;34.994;2022-09-09T04:18:31;19.95;;;6.95;;
44384;SDS011;30101;32.778;34.994;2022-09-09T04:23:35;14.73;;;6.60;;
44384;SDS011;30101;32.778;34.994;2022-09-09T04:28:40;14.50;;;5.95;;
44384;SDS011;30101;32.778;34.994;2022-09-09T04:33:52;12.38;;;6.55;;
44384;SDS011;30101;32.778;34.994;2022-09-09T04:38:57;12.48;;;6.78;;
44384;SDS011;30101;32.778;34.994;2022-09-09T04:44:02;19.73;;;8.25;;
44384;SDS011;30101;32.778;34.994;2022-09-09T04:49:08;17.42;;;6.90;;
44384;SDS011;30101;32.778;34.994;2022-09-09T04:54:18;19.20;;;7.13;;
44384;SDS011;30101;32.778;34.994;2022-09-09T04:59:22;22.60;;;7.25;;
44384;SDS011;30101;32.778;34.994;2022-09-09T05:04:30;16.00;;;6.13;;
44384;SDS011;30101;32.778;34.994;2022-09-09T05:09:34;22.92;;;6.47;;
44384;SDS011;30101;32.778;34.994;2022-09-09T05:14:37;16.77;;;5.32;;
44384;SDS011;30101;32.778;34.994;2022-09-09T05:19:43;24.33;;;6.47;;
44384;SDS011;30101;32.778;34.994;2022-09-09T05:24:47;12.43;;;5.13;;
44384;SDS011;30101;32.778;34.994;2022-09-09T05:29:50;10.63;;;5.40;;
44384;SDS011;30101;32.778;34.994;2022-09-09T05:34:55;24.83;;;5.85;;
44384;SDS011;30101;32.778;34.994;2022-09-09T05:40:01;9.93;;;5.35;;
44384;SDS011;30101;32.778;34.994;2022-09-09T05:45:05;12.02;;;5.85;;
44384;SDS011;30101;32.778;34.994;2022-09-09T05:50:10;15.48;;;7.47;;
44384;SDS011;30101;32.778;34.994;2022-09-09T05:55:13;16.63;;;6.60;;
44384;SDS011;30101;32.778;34.994;2022-09-09T06:00:17;8.82;;;5.82;;
44384;SDS011;30101;32.778;34.994;2022-09-09T06:05:22;11.40;;;6.00;;
44384;SDS011;30101;32.778;34.994;2022-09-09T06:10:25;11.48;;;6.35;;
44384;SDS011;30101;32.778;34.994;2022-09-09T06:15:29;26.08;;;8.07;;
44384;SDS011;30101;32.778;34.994;2022-09-09T06:20:32;17.95;;;6.32;;
44384;SDS011;30101;32.778;34.994;2022-09-09T06:25:38;19.00;;;6.82;;
44384;SDS011;30101;32.778;34.994;2022-09-09T06:30:48;15.65;;;6.38;;
44384;SDS011;30101;32.778;34.994;2022-09-09T06:35:52;13.07;;;6.30;;
44384;SDS011;30101;32.778;34.994;2022-09-09T06:40:57;15.32;;;6.40;;
44384;SDS011;30101;32.778;34.994;2022-09-09T06:46:04;8.43;;;7.13;;
44384;SDS011;30101;32.778;34.994;2022-09-09T06:51:20;12.63;;;7.35;;
44384;SDS011;30101;32.778;34.994;2022-09-09T06:56:26;40.05;;;9.02;;
44384;SDS011;30101;32.778;34.994;2022-09-09T07:01:38;10.63;;;6.67;;
44384;SDS011;30101;32.778;34.994;2022-09-09T07:06:47;10.55;;;6.25;;
44384;SDS011;30101;32.778;34.994;2022-09-09T07:11:56;9.07;;;5.88;;
44384;SDS011;30101;32.778;34.994;2022-09-09T07:17:01;10.25;;;6.07;;
44384;SDS011;30101;32.778;34.994;2022-09-09T07:22:11;11.48;;;6.40;;
44384;SDS011;30101;32.778;34.994;2022-09-09T07:27:15;10.40;;;5.93;;
44384;SDS011;30101;32.778;34.994;2022-09-09T07:32:19;11.23;;;5.78;;
44384;SDS011;30101;32.778;34.994;2022-09-09T07:37:23;9.38;;;5.35;;
44384;SDS011;30101;32.778;34.994;2022-09-09T07:42:28;10.35;;;6.38;;
44384;SDS011;30101;32.778;34.994;2022-09-09T07:47:32;15.48;;;6.22;;
44384;SDS011;30101;32.778;34.994;2022-09-09T07:52:40;12.70;;;5.47;;
44384;SDS011;30101;32.778;34.994;2022-09-09T07:57:44;9.52;;;5.05;;
44384;SDS011;30101;32.778;34.994;2022-09-09T08:02:49;25.45;;;7.68;;
44384;SDS011;30101;32.778;34.994;2022-09-09T08:07:53;6.05;;;5.00;;
44384;SDS011;30101;32.778;34.994;2022-09-09T08:12:57;5.97;;;4.32;;
44384;SDS011;30101;32.778;34.994;2022-09-09T08:18:19;12.73;;;5.43;;
44384;SDS011;30101;32.778;34.994;2022-09-09T08:23:23;4.82;;;3.85;;
44384;SDS011;30101;32.778;34.994;2022-09-09T08:28:27;11.05;;;4.20;;
44384;SDS011;30101;32.778;34.994;2022-09-09T08:33:32;8.18;;;4.05;;
44384;SDS011;30101;32.778;34.994;2022-09-09T08:38:35;13.88;;;4.38;;
44384;SDS011;30101;32.778;34.994;2022-09-09T08:43:39;18.63;;;4.85;;
44384;SDS011;30101;32.778;34.994;2022-09-09T08:48:56;13.35;;;4.57;;
44384;SDS011;30101;32.778;34.994;2022-09-09T08:54:03;5.88;;;4.30;;
44384;SDS011;30101;32.778;34.994;2022-09-09T08:59:08;9.82;;;4.07;;
44384;SDS011;30101;32.778;34.994;2022-09-09T09:04:22;5.70;;;3.78;;
44384;SDS011;30101;32.778;34.994;2022-09-09T09:09:43;6.40;;;3.58;;
44384;SDS011;30101;32.778;34.994;2022-09-09T09:14:49;5.78;;;3.70;;
44384;SDS011;30101;32.778;34.994;2022-09-09T09:19:54;9.68;;;4.72;;
44384;SDS011;30101;32.778;34.994;2022-09-09T09:30:12;7.82;;;3.00;;
44384;SDS011;30101;32.778;34.994;2022-09-09T09:35:39;9.32;;;4.00;;
44384;SDS011;30101;32.778;34.994;2022-09-09T09:40:53;4.60;;;3.47;;
44384;SDS011;30101;32.778;34.994;2022-09-09T09:45:58;6.05;;;3.92;;
44384;SDS011;30101;32.778;34.994;2022-09-09T09:51:20;7.82;;;3.67;;
44384;SDS011;30101;32.778;34.994;2022-09-09T09:56:27;5.20;;;3.67;;
44384;SDS011;30101;32.778;34.994;2022-09-09T10:01:33;10.80;;;4.60;;
44384;SDS011;30101;32.778;34.994;2022-09-09T10:06:42;6.57;;;3.63;;
44384;SDS011;30101;32.778;34.994;2022-09-09T10:22:33;8.45;;;3.30;;
44384;SDS011;30101;32.778;34.994;2022-09-09T10:32:57;7.30;;;3.53;;
44384;SDS011;30101;32.778;34.994;2022-09-09T10:59:37;4.65;;;3.38;;
44384;SDS011;30101;32.778;34.994;2022-09-09T11:04:51;8.65;;;3.35;;
44384;SDS011;30101;32.778;34.994;2022-09-09T11:10:02;11.43;;;3.60;;
44384;SDS011;30101;32.778;34.994;2022-09-09T11:15:31;5.57;;;4.18;;
44384;SDS011;30101;32.778;34.994;2022-09-09T11:20:42;4.78;;;3.92;;
44384;SDS011;30101;32.778;34.994;2022-09-09T11:25:50;8.05;;;3.70;;
44384;SDS011;30101;32.778;34.994;2022-09-09T11:31:16;3.90;;;2.85;;
44384;SDS011;30101;32.778;34.994;2022-09-09T11:36:33;6.65;;;3.45;;
44384;SDS011;30101;32.778;34.994;2022-09-09T11:41:55;7.75;;;3.03;;
44384;SDS011;30101;32.778;34.994;2022-09-09T11:47:30;13.23;;;3.60;;
44384;SDS011;30101;32.778;34.994;2022-09-09T11:52:38;6.53;;;2.95;;
44384;SDS011;30101;32.778;34.994;2022-09-09T11:57:43;7.22;;;3.28;;
44384;SDS011;30101;32.778;34.994;2022-09-09T12:02:51;12.27;;;5.03;;
44384;SDS011;30101;32.778;34.994;2022-09-09T12:07:55;10.35;;;3.28;;
44384;SDS011;30101;32.778;34.994;2022-09-09T12:13:08;4.60;;;3.10;;
44384;SDS011;30101;32.778;34.994;2022-09-09T12:18:14;5.30;;;3.10;;
44384;SDS011;30101;32.778;34.994;2022-09-09T12:28:45;6.93;;;3.03;;
44384;SDS011;30101;32.778;34.994;2022-09-09T12:34:02;5.07;;;3.50;;
44384;SDS011;30101;32.778;34.994;2022-09-09T12:39:29;7.10;;;3.75;;
44384;SDS011;30101;32.778;34.994;2022-09-09T12:44:49;5.55;;;4.07;;
44384;SDS011;30101;32.778;34.994;2022-09-09T12:50:10;7.35;;;4.00;;
44384;SDS011;30101;32.778;34.994;2022-09-09T12:55:23;8.75;;;3.97;;
44384;SDS011;30101;32.778;34.994;2022-09-09T13:00:30;9.17;;;4.17;;
44384;SDS011;30101;32.778;34.994;2022-09-09T13:05:35;4.78;;;3.65;;
44384;SDS011;30101;32.778;34.994;2022-09-09T13:10:44;5.43;;;4.03;;
44384;SDS011;30101;32.778;34.994;2022-09-09T13:16:00;4.85;;;3.78;;
44384;SDS011;30101;32.778;34.994;2022-09-09T13:21:04;6.97;;;3.38;;
44384;SDS011;30101;32.778;34.994;2022-09-09T13:26:24;6.15;;;3.67;;
44384;SDS011;30101;32.778;34.994;2022-09-09T13:31:30;6.93;;;3.33;;
44384;SDS011;30101;32.778;34.994;2022-09-09T13:36:36;6.70;;;3.72;;
44384;SDS011;30101;32.778;34.994;2022-09-09T13:41:43;8.77;;;3.33;;
44384;SDS011;30101;32.778;34.994;2022-09-09T13:46:58;7.03;;;3.72;;
44384;SDS011;30101;32.778;34.994;2022-09-09T13:52:04;6.80;;;3.83;;
44384;SDS011;30101;32.778;34.994;2022-09-09T13:57:19;10.27;;;3.33;;
44384;SDS011;30101;32.778;34.994;2022-09-09T14:07:30;4.75;;;3.22;;
44384;SDS011;30101;32.778;34.994;2022-09-09T14:12:33;6.65;;;2.97;;
44384;SDS011;30101;32.778;34.994;2022-09-09T14:17:37;8.52;;;3.05;;
44384;SDS011;30101;32.778;34.994;2022-09-09T14:22:40;5.72;;;3.00;;
44384;SDS011;30101;32.778;34.994;2022-09-09T14:27:44;7.25;;;3.28;;
44384;SDS011;30101;32.778;34.994;2022-09-09T14:32:48;6.22;;;2.95;;
44384;SDS011;30101;32.778;34.994;2022-09-09T14:37:51;6.30;;;2.65;;
44384;SDS011;30101;32.778;34.994;2022-09-09T14:42:55;4.05;;;2.60;;
44384;SDS011;30101;32.778;34.994;2022-09-09T14:47:59;8.70;;;2.90;;
44384;SDS011;30101;32.778;34.994;2022-09-09T14:53:08;7.53;;;3.50;;
44384;SDS011;30101;32.778;34.994;2022-09-09T14:58:12;7.45;;;3.17;;
44384;SDS011;30101;32.778;34.994;2022-09-09T15:03:16;6.38;;;2.50;;
44384;SDS011;30101;32.778;34.994;2022-09-09T15:08:19;6.85;;;2.72;;
44384;SDS011;30101;32.778;34.994;2022-09-09T15:13:23;3.75;;;2.58;;
44384;SDS011;30101;32.778;34.994;2022-09-09T15:18:26;6.25;;;3.70;;
44384;SDS011;30101;32.778;34.994;2022-09-09T15:23:31;5.03;;;3.30;;
44384;SDS011;30101;32.778;34.994;2022-09-09T15:28:36;7.38;;;2.80;;
44384;SDS011;30101;32.778;34.994;2022-09-09T15:33:41;6.07;;;3.38;;
44384;SDS011;30101;32.778;34.994;2022-09-09T15:38:44;6.00;;;2.80;;
44384;SDS011;30101;32.778;34.994;2022-09-09T15:43:50;4.57;;;2.97;;
44384;SDS011;30101;32.778;34.994;2022-09-09T15:48:56;5.38;;;2.50;;
44384;SDS011;30101;32.778;34.994;2022-09-09T15:54:21;4.63;;;2.60;;
44384;SDS011;30101;32.778;34.994;2022-09-09T15:59:26;3.55;;;2.58;;
44384;SDS011;30101;32.778;34.994;2022-09-09T16:04:32;12.05;;;3.45;;
44384;SDS011;30101;32.778;34.994;2022-09-09T16:09:36;5.78;;;2.80;;
44384;SDS011;30101;32.778;34.994;2022-09-09T16:14:39;10.68;;;3.22;;
44384;SDS011;30101;32.778;34.994;2022-09-09T16:19:42;3.90;;;2.55;;
44384;SDS011;30101;32.778;34.994;2022-09-09T16:24:46;4.90;;;2.30;;
44384;SDS011;30101;32.778;34.994;2022-09-09T16:29:49;5.60;;;2.50;;
44384;SDS011;30101;32.778;34.994;2022-09-09T16:34:53;3.22;;;2.28;;
44384;SDS011;30101;32.778;34.994;2022-09-09T16:39:56;6.13;;;2.60;;
44384;SDS011;30101;32.778;34.994;2022-09-09T16:45:00;5.03;;;3.00;;
44384;SDS011;30101;32.778;34.994;2022-09-09T16:50:04;5.72;;;2.88;;
44384;SDS011;30101;32.778;34.994;2022-09-09T16:55:08;7.18;;;3.00;;
44384;SDS011;30101;32.778;34.994;2022-09-09T17:00:11;3.80;;;2.70;;
44384;SDS011;30101;32.778;34.994;2022-09-09T17:05:15;5.97;;;3.10;;
44384;SDS011;30101;32.778;34.994;2022-09-09T17:10:19;4.50;;;2.60;;
44384;SDS011;30101;32.778;34.994;2022-09-09T17:15:23;4.85;;;2.80;;
44384;SDS011;30101;32.778;34.994;2022-09-09T17:20:26;4.80;;;2.30;;
44384;SDS011;30101;32.778;34.994;2022-09-09T17:25:55;5.43;;;2.45;;
44384;SDS011;30101;32.778;34.994;2022-09-09T17:31:00;6.28;;;3.65;;
44384;SDS011;30101;32.778;34.994;2022-09-09T17:36:14;5.22;;;2.50;;
44384;SDS011;30101;32.778;34.994;2022-09-09T17:41:21;4.85;;;2.75;;
44384;SDS011;30101;32.778;34.994;2022-09-09T17:51:40;4.72;;;2.90;;
44384;SDS011;30101;32.778;34.994;2022-09-09T17:56:45;3.50;;;2.38;;
44384;SDS011;30101;32.778;34.994;2022-09-09T18:01:50;5.88;;;3.00;;
44384;SDS011;30101;32.778;34.994;2022-09-09T18:06:54;14.13;;;2.60;;
44384;SDS011;30101;32.778;34.994;2022-09-09T18:11:57;2.90;;;2.28;;
44384;SDS011;30101;32.778;34.994;2022-09-09T18:17:01;5.13;;;2.85;;
44384;SDS011;30101;32.778;34.994;2022-09-09T18:22:05;6.70;;;2.28;;
44384;SDS011;30101;32.778;34.994;2022-09-09T18:27:08;4.65;;;2.70;;
44384;SDS011;30101;32.778;34.994;2022-09-09T18:32:12;6.20;;;2.55;;
44384;SDS011;30101;32.778;34.994;2022-09-09T18:37:15;4.93;;;3.00;;
44384;SDS011;30101;32.778;34.994;2022-09-09T18:42:19;3.95;;;2.70;;
44384;SDS011;30101;32.778;34.994;2022-09-09T18:47:22;10.70;;;2.97;;
44384;SDS011;30101;32.778;34.994;2022-09-09T18:52:25;9.38;;;5.30;;
44384;SDS011;30101;32.778;34.994;2022-09-09T18:57:29;4.80;;;3.08;;
44384;SDS011;30101;32.778;34.994;2022-09-09T19:02:38;9.82;;;7.18;;
44384;SDS011;30101;32.778;34.994;2022-09-09T19:07:41;8.45;;;4.72;;
44384;SDS011;30101;32.778;34.994;2022-09-09T19:12:46;5.75;;;2.97;;
44384;SDS011;30101;32.778;34.994;2022-09-09T19:17:49;5.63;;;3.30;;
44384;SDS011;30101;32.778;34.994;2022-09-09T19:22:53;5.75;;;3.10;;
44384;SDS011;30101;32.778;34.994;2022-09-09T19:27:57;6.07;;;4.15;;
44384;SDS011;30101;32.778;34.994;2022-09-09T19:33:02;6.32;;;4.18;;
44384;SDS011;30101;32.778;34.994;2022-09-09T19:38:06;7.60;;;4.30;;
44384;SDS011;30101;32.778;34.994;2022-09-09T19:43:10;4.53;;;3.05;;
44384;SDS011;30101;32.778;34.994;2022-09-09T19:48:14;4.13;;;3.10;;
44384;SDS011;30101;32.778;34.994;2022-09-09T19:53:19;12.55;;;3.25;;
44384;SDS011;30101;32.778;34.994;2022-09-09T19:58:24;6.85;;;3.33;;
44384;SDS011;30101;32.778;34.994;2022-09-09T20:03:28;7.07;;;3.78;;
44384;SDS011;30101;32.778;34.994;2022-09-09T20:08:32;5.55;;;3.35;;
44384;SDS011;30101;32.778;34.994;2022-09-09T20:13:38;6.32;;;4.03;;
44384;SDS011;30101;32.778;34.994;2022-09-09T20:18:43;5.18;;;3.30;;
44384;SDS011;30101;32.778;34.994;2022-09-09T20:23:49;5.70;;;3.22;;
44384;SDS011;30101;32.778;34.994;2022-09-09T20:28:53;5.57;;;3.10;;
44384;SDS011;30101;32.778;34.994;2022-09-09T20:33:57;5.78;;;3.30;;
44384;SDS011;30101;32.778;34.994;2022-09-09T20:39:02;4.03;;;3.63;;
44384;SDS011;30101;32.778;34.994;2022-09-09T20:44:08;6.00;;;3.42;;
44384;SDS011;30101;32.778;34.994;2022-09-09T20:49:18;8.93;;;3.85;;
44384;SDS011;30101;32.778;34.994;2022-09-09T20:54:23;10.25;;;3.20;;
44384;SDS011;30101;32.778;34.994;2022-09-09T20:59:30;3.70;;;2.83;;
44384;SDS011;30101;32.778;34.994;2022-09-09T21:04:34;4.63;;;3.00;;
44384;SDS011;30101;32.778;34.994;2022-09-09T21:09:38;5.10;;;2.60;;
44384;SDS011;30101;32.778;34.994;2022-09-09T21:14:42;6.22;;;3.00;;
44384;SDS011;30101;32.778;34.994;2022-09-09T21:19:45;5.32;;;3.17;;
44384;SDS011;30101;32.778;34.994;2022-09-09T21:24:49;3.63;;;3.10;;
44384;SDS011;30101;32.778;34.994;2022-09-09T21:29:52;4.95;;;3.53;;
44384;SDS011;30101;32.778;34.994;2022-09-09T21:34:55;4.57;;;3.60;;
44384;SDS011;30101;32.778;34.994;2022-09-09T21:39:58;5.47;;;3.30;;
44384;SDS011;30101;32.778;34.994;2022-09-09T21:45:04;8.98;;;4.10;;
44384;SDS011;30101;32.778;34.994;2022-09-09T21:50:08;8.15;;;3.22;;
44384;SDS011;30101;32.778;34.994;2022-09-09T21:55:12;8.50;;;4.03;;
44384;SDS011;30101;32.778;34.994;2022-09-09T22:00:16;5.15;;;3.13;;
44384;SDS011;30101;32.778;34.994;2022-09-09T22:05:19;10.25;;;3.47;;
44384;SDS011;30101;32.778;34.994;2022-09-09T22:10:22;4.32;;;2.80;;
44384;SDS011;30101;32.778;34.994;2022-09-09T22:15:27;3.97;;;3.42;;
44384;SDS011;30101;32.778;34.994;2022-09-09T22:20:31;4.03;;;3.50;;
44384;SDS011;30101;32.778;34.994;2022-09-09T22:25:36;4.45;;;3.30;;
44384;SDS011;30101;32.778;34.994;2022-09-09T22:30:41;5.00;;;3.03;;
44384;SDS011;30101;32.778;34.994;2022-09-09T22:35:44;3.40;;;2.75;;
44384;SDS011;30101;32.778;34.994;2022-09-09T22:40:48;4.38;;;2.83;;
44384;SDS011;30101;32.778;34.994;2022-09-09T22:45:51;4.10;;;3.70;;
44384;SDS011;30101;32.778;34.994;2022-09-09T22:50:59;7.93;;;2.97;;
44384;SDS011;30101;32.778;34.994;2022-09-09T22:56:04;5.03;;;2.95;;
44384;SDS011;30101;32.778;34.994;2022-09-09T23:01:13;9.30;;;2.88;;
44384;SDS011;30101;32.778;34.994;2022-09-09T23:06:22;3.33;;;2.88;;
44384;SDS011;30101;32.778;34.994;2022-09-09T23:11:35;7.53;;;3.67;;
44384;SDS011;30101;32.778;34.994;2022-09-09T23:16:39;5.80;;;3.20;;
44384;SDS011;30101;32.778;34.994;2022-09-09T23:21:46;3.95;;;3.55;;
44384;SDS011;30101;32.778;34.994;2022-09-09T23:26:50;8.65;;;3.55;;
44384;SDS011;30101;32.778;34.994;2022-09-09T23:31:54;4.35;;;3.72;;
44384;SDS011;30101;32.778;34.994;2022-09-09T23:36:57;5.65;;;3.58;;
44384;SDS011;30101;32.778;34.994;2022-09-09T23:42:01;6.40;;;3.53;;
44384;SDS011;30101;32.778;34.994;2022-09-09T23:47:08;4.53;;;3.72;;
44384;SDS011;30101;32.778;34.994;2022-09-09T23:52:11;4.00;;;3.60;;
44384;SDS011;30101;32.778;34.994;2022-09-09T23:57:14;7.28;;;4.07;;
